Sunday, July 22, 2018, 10:28 AM EDT
Back to Local

KSFZ, Pawtucket, North Central State Airport

Location: Smithfield, RI, United States Lat: 41.917
Local Time: 10:28 AM EDT (14:28 GMT) Lon: -71.5
Time Zone: US/Eastern Elev: 439 ft

Show me the last for .
Show Decoded

2018-07-22 10:13 METAR KSFZ 221413Z AUTO VRB05KT 7SM RA BKN020 BKN026 OVC070 20/19 A3006 RMK AO2
                 P0003 =
2018-07-22 09:56 METAR KSFZ 221356Z AUTO 16004KT 6SM RA BR FEW028 OVC070 19/19 A3006 RMK AO2
                 SLP125 P0008 T01940189 =
2018-07-22 09:08 METAR KSFZ 221308Z AUTO VRB04KT 10SM -RA SCT009 BKN047 OVC060 20/19 A3005 RMK
                 AO2 P0000 =
2018-07-22 08:56 METAR KSFZ 221256Z AUTO VRB06G14KT 9SM -RA BKN009 BKN047 OVC060 20/19 A3006 RMK
                 AO2 CIG 007V013 SLP122 P0007 T02000194 =
2018-07-22 08:43 METAR KSFZ 221243Z AUTO 18007G16KT 140V210 9SM -RA OVC009 21/20 A3005 RMK AO2
                 CIG 005V015 P0006 =
2018-07-22 08:35 METAR KSFZ 221235Z AUTO 16009G18KT 120V200 9SM -RA SCT006 OVC011 22/21 A3004 RMK
                 AO2 P0005 =
2018-07-22 08:23 METAR KSFZ 221223Z AUTO 16011G25KT 130V200 6SM RA BR BKN004 OVC011 22/22 A3004
                 RMK AO2 CIG 002V007 P0004 =
2018-07-22 07:56 METAR KSFZ 221156Z AUTO 13009KT 4SM -RA BR OVC002 21/21 A3002 RMK AO2 SLP112
                 P0007 60011 70011 T02060206 10206 20172 56002 =
2018-07-22 07:46 METAR KSFZ 221146Z AUTO 11009KT 2SM -RA BR OVC002 20/20 A3002 RMK AO2 P0006 =
2018-07-22 07:39 METAR KSFZ 221139Z AUTO 11010KT 1SM -RA BR OVC002 20/20 A3002 RMK AO2 VIS 1/2V4
                 P0005 =
2018-07-22 07:33 METAR KSFZ 221133Z AUTO 10009KT 1/2SM -RA FG OVC002 20/19 A3002 RMK AO2 P0005 =
2018-07-22 07:25 METAR KSFZ 221125Z AUTO 10009KT 1SM -RA BR OVC002 20/19 A3002 RMK AO2 P0004 =
2018-07-22 07:04 METAR KSFZ 221104Z AUTO 10008KT 1 1/4SM RA BR OVC002 19/19 A3003 RMK AO2 P0001 =
2018-07-22 06:56 METAR KSFZ 221056Z AUTO 10009G15KT 3/4SM -RA BR OVC002 19/19 A3003 RMK AO2
                 SLP113 P0004 T01890189 =
2018-07-22 06:47 METAR KSFZ 221047Z AUTO 09009KT 3/4SM -RA BR OVC002 19/19 A3003 RMK AO2 P0004 =
2018-07-22 06:34 METAR KSFZ 221034Z AUTO 09007G14KT 1 1/4SM -RA BR OVC002 19/18 A3003 RMK AO2
                 P0004 =
2018-07-22 06:31 METAR KSFZ 221031Z AUTO 09010G15KT 3/4SM -RA BR OVC002 18/18 A3003 RMK AO2 P0004
                 =
2018-07-22 06:24 METAR KSFZ 221024Z AUTO 09011G15KT 1/4SM -RA FG OVC002 18/18 A3002 RMK AO2 P0002
                 =
2018-07-22 06:17 METAR KSFZ 221017Z AUTO 08008KT 1/2SM -RA FG OVC002 18/18 A3003 RMK AO2 P0001 =
2018-07-22 06:09 METAR KSFZ 221009Z AUTO 08008KT 1/4SM -RA FG OVC002 18/18 A3002 RMK AO2 P0000 =
2018-07-22 05:56 METAR KSFZ 220956Z AUTO 08008KT 1/2SM -RA FG OVC002 18/18 A3003 RMK AO2 SLP114
                 P0000 T01830178 =
2018-07-22 05:54 METAR KSFZ 220954Z AUTO 08009KT 1/2SM -RA FG OVC002 18/18 A3003 RMK AO2 P0000 =
2018-07-22 05:43 METAR KSFZ 220943Z AUTO 08007KT 3/4SM -RA BR OVC002 18/18 A3004 RMK AO2 P0000 =
2018-07-22 05:29 METAR KSFZ 220929Z AUTO 10007KT 1 3/4SM -RA BR OVC002 18/18 A3005 RMK AO2 P0000
                 =
2018-07-22 05:03 METAR KSFZ 220903Z AUTO 07006KT 2 1/2SM -RA BR OVC002 18/17 A3004 RMK AO2 P0000
                 =
2018-07-22 04:56 METAR KSFZ 220856Z AUTO 08007KT 2 1/2SM -RA BR OVC004 18/17 A3004 RMK AO2 SLP118
                 P0000 60000 T01780172 58005 =
2018-07-22 04:51 METAR KSFZ 220851Z AUTO 09005KT 2 1/2SM -RA BR OVC004 18/17 A3005 RMK AO2 P0000
                 =
2018-07-22 03:56 METAR KSFZ 220756Z AUTO 09006KT 10SM -RA OVC004 17/17 A3006 RMK AO2 RAB48 SLP124
                 P0000 T01720167 =
2018-07-22 02:56 METAR KSFZ 220656Z AUTO 09006KT 10SM OVC006 18/16 A3007 RMK AO2 SLP127 T01780161
                 =
2018-07-22 01:56 METAR KSFZ 220556Z AUTO VRB06KT 10SM OVC008 17/16 A3007 RMK AO2 SLP129 T01720156
                 10200 20172 56013 =
2018-07-22 01:32 METAR KSFZ 220532Z AUTO 08007KT 10SM BKN008 OVC019 17/16 A3008 RMK AO2 CIG
                 008V012 =
2018-07-22 01:10 METAR KSFZ 220510Z AUTO 07006KT 10SM SCT012 OVC021 17/16 A3008 RMK AO2 =
2018-07-22 00:56 METAR KSFZ 220456Z AUTO 08007KT 10SM BKN014 BKN021 OVC075 17/16 A3008 RMK AO2
                 SLP132 T01720156 402560117 =
2018-07-22 00:36 METAR KSFZ 220436Z AUTO 08007KT 10SM BKN014 OVC021 17/15 A3009 RMK AO2 =
2018-07-22 00:29 METAR KSFZ 220429Z AUTO 07006KT 10SM BKN016 OVC080 17/15 A3009 RMK AO2 =
2018-07-21 23:56 METAR KSFZ 220356Z AUTO 09007KT 10SM FEW050 OVC080 17/15 A3010 RMK AO2 SLP139
                 T01720150 =
2018-07-21 22:56 METAR KSFZ 220256Z AUTO 09007KT 10SM FEW046 BKN080 17/15 A3011 RMK AO2 SLP142
                 T01720150 58003 =
2018-07-21 21:56 METAR KSFZ 220156Z AUTO 09007KT 10SM CLR 18/15 A3013 RMK AO2 SLP146 T01780150 =
2018-07-21 20:56 METAR KSFZ 220056Z AUTO 09006KT 10SM BKN060 19/16 A3012 RMK AO2 SLP144 T01890156
                 =
2018-07-21 19:56 METAR KSFZ 212356Z AUTO 09006KT 10SM OVC055 20/16 A3012 RMK AO2 SLP145 T02000156
                 10256 20200 53006 =
2018-07-21 18:56 METAR KSFZ 212256Z AUTO 08007KT 10SM CLR 22/16 A3012 RMK AO2 SLP144 T02170161 =
2018-07-21 17:56 METAR KSFZ 212156Z AUTO 10010KT 10SM CLR 23/16 A3010 RMK AO2 SLP140 T02280156 =
2018-07-21 16:56 METAR KSFZ 212056Z AUTO 08006KT 10SM CLR 24/16 A3010 RMK AO2 SLP139 T02440156
                 55010 =
2018-07-21 15:56 METAR KSFZ 211956Z AUTO 12009G14KT 10SM SCT044 26/15 A3010 RMK AO2 SLP138
                 T02560150 =
2018-07-21 14:56 METAR KSFZ 211856Z AUTO 13005KT 10SM FEW046 26/14 A3012 RMK AO2 SLP144 T02560139
                 =
2018-07-21 13:56 METAR KSFZ 211756Z AUTO VRB05KT 10SM SCT044 25/14 A3014 RMK AO2 SLP149 T02500144
                 10250 20183 58013 =
2018-07-21 12:56 METAR KSFZ 211656Z AUTO 10006KT 10SM OVC040 24/14 A3016 RMK AO2 SLP156 T02390144
                 =
2018-07-21 11:56 METAR KSFZ 211556Z AUTO 09005KT 10SM BKN036 23/14 A3017 RMK AO2 SLP161 T02330139
                 =
2018-07-21 10:56 METAR KSFZ 211456Z AUTO 11008KT 090V170 10SM CLR 23/14 A3017 RMK AO2 SLP162
                 T02280139 58000 =

Support USWX by starting your Amazon purchase here.